createdAt,value
2018-05-19T00:01:37.326Z,27.60
2018-05-19T00:04:05.608Z,24.87
2018-05-19T00:06:33.858Z,24.87
2018-05-19T00:09:01.392Z,38.00
2018-05-19T00:11:28.878Z,25.00
2018-05-19T00:13:56.426Z,33.03
2018-05-19T00:16:23.939Z,24.40
2018-05-19T00:18:51.437Z,22.63
2018-05-19T00:21:18.964Z,26.03
2018-05-19T00:23:46.452Z,22.13
2018-05-19T00:26:13.974Z,24.17
2018-05-19T00:28:42.231Z,26.00
2018-05-19T00:31:09.742Z,34.33
2018-05-19T00:33:38.022Z,23.90
2018-05-19T00:36:06.302Z,25.90
2018-05-19T00:38:33.782Z,29.90
2018-05-19T00:41:01.302Z,24.20
2018-05-19T00:43:28.790Z,27.23
2018-05-19T00:45:56.312Z,38.13
2018-05-19T00:48:23.798Z,36.63
2018-05-19T00:50:51.322Z,19.00
2018-05-19T00:53:18.802Z,28.13
2018-05-19T00:55:46.322Z,22.93
2018-05-19T00:58:13.805Z,25.87
2018-05-19T01:00:41.320Z,23.17
2018-05-19T01:03:09.570Z,25.37
2018-05-19T01:05:37.110Z,32.93
2018-05-19T01:08:04.605Z,31.30
2018-05-19T01:10:32.123Z,23.37
2018-05-19T01:15:51.560Z,41.17
2018-05-19T01:18:19.834Z,19.50
2018-05-19T01:20:48.086Z,23.00
2018-05-19T01:23:15.605Z,24.80
2018-05-19T01:25:43.862Z,31.57
2018-05-19T01:28:11.408Z,34.00
2018-05-19T01:30:38.902Z,26.60
2018-05-19T01:33:06.391Z,26.90
2018-05-19T01:35:33.920Z,22.00
2018-05-19T01:38:01.461Z,25.63
2018-05-19T01:40:28.958Z,23.43
2018-05-19T01:42:56.482Z,19.47
2018-05-19T01:45:24.738Z,27.13
2018-05-19T01:47:52.265Z,37.07
2018-05-19T01:50:19.770Z,29.33
2018-05-19T01:52:47.286Z,27.90
2018-05-19T01:55:15.537Z,26.07
2018-05-19T01:57:43.073Z,23.07
2018-05-19T02:00:10.554Z,26.17
2018-05-19T02:02:38.092Z,27.63
2018-05-19T02:05:06.360Z,31.57
2018-05-19T02:07:33.857Z,28.07
2018-05-19T02:10:01.378Z,30.47
2018-05-19T02:12:28.870Z,33.77
2018-05-19T02:14:56.398Z,22.93
2018-05-19T02:17:23.895Z,26.83
2018-05-19T02:19:51.432Z,28.10
2018-05-19T02:22:18.930Z,34.83
2018-05-19T02:24:46.486Z,22.77
2018-05-19T02:27:13.974Z,32.93
2018-05-19T02:29:41.489Z,35.73
2018-05-19T02:32:09.741Z,24.10
2018-05-19T02:34:37.262Z,31.27
2018-05-19T02:37:05.517Z,34.47
2018-05-19T02:39:33.042Z,33.17
2018-05-19T02:42:00.530Z,27.00
2018-05-19T02:44:28.077Z,25.47
2018-05-19T02:46:55.591Z,33.43
2018-05-19T02:49:23.079Z,33.77
2018-05-19T02:51:50.616Z,33.80
2018-05-19T02:54:18.098Z,26.10
2018-05-19T02:56:45.621Z,32.70
2018-05-19T02:59:13.878Z,32.77
2018-05-19T03:01:41.398Z,32.53
2018-05-19T03:04:08.906Z,33.77
2018-05-19T03:06:36.427Z,33.73
2018-05-19T03:09:04.677Z,38.17
2018-05-19T03:11:32.209Z,43.17
2018-05-19T03:13:59.706Z,31.93
2018-05-19T03:16:27.239Z,33.93
2018-05-19T03:18:54.721Z,35.23
2018-05-19T03:21:22.238Z,32.77
2018-05-19T03:23:49.730Z,32.63
2018-05-19T03:26:17.254Z,32.40
2018-05-19T03:28:44.749Z,35.43
2018-05-19T03:31:12.394Z,32.03
2018-05-19T03:33:39.877Z,31.17
2018-05-19T03:36:07.444Z,44.00
2018-05-19T03:38:34.898Z,41.27
2018-05-19T03:41:02.385Z,45.03
2018-05-19T03:43:29.903Z,38.50
2018-05-19T03:45:58.150Z,35.77
2018-05-19T03:48:25.695Z,45.20
2018-05-19T03:50:53.185Z,36.43
2018-05-19T03:53:20.702Z,45.03
2018-05-19T03:55:48.969Z,30.73
2018-05-19T03:58:28.314Z,29.87
2018-05-19T04:01:07.729Z,46.27
2018-05-19T04:03:35.250Z,32.40
2018-05-19T04:06:02.737Z,31.90
2018-05-19T04:08:31.037Z,34.67
2018-05-19T04:10:59.290Z,36.73
2018-05-19T04:13:26.821Z,41.90
2018-05-19T04:15:54.321Z,33.67
2018-05-19T04:18:21.840Z,24.53
2018-05-19T04:20:50.107Z,30.57
2018-05-19T04:23:17.634Z,34.47
2018-05-19T04:25:45.117Z,49.57
2018-05-19T04:28:12.622Z,36.90
2018-05-19T04:30:40.107Z,42.07
2018-05-19T04:33:08.360Z,36.63
2018-05-19T04:35:35.879Z,35.20
2018-05-19T04:38:04.172Z,28.00
2018-05-19T04:40:31.663Z,22.70
2018-05-19T04:42:59.146Z,26.73
2018-05-19T04:45:26.665Z,28.93
2018-05-19T04:47:54.163Z,34.77
2018-05-19T04:50:21.686Z,33.37
2018-05-19T04:52:49.182Z,23.83
2018-05-19T04:55:17.476Z,35.43
2018-05-19T04:57:45.734Z,27.93
2018-05-19T05:00:13.262Z,26.07
2018-05-19T05:02:40.750Z,32.60
2018-05-19T05:05:08.274Z,23.67
2018-05-19T05:07:36.549Z,27.77
2018-05-19T05:10:04.100Z,27.63
2018-05-19T05:12:31.587Z,29.03
2018-05-19T05:14:59.120Z,34.10
2018-05-19T05:17:26.621Z,28.83
2018-05-19T05:19:54.244Z,27.33
2018-05-19T05:22:21.657Z,26.57
2018-05-19T05:24:49.154Z,30.43
2018-05-19T05:27:16.682Z,26.20
2018-05-19T05:29:44.174Z,29.40
2018-05-19T05:32:15.474Z,27.10
2018-05-19T05:34:43.737Z,31.27
2018-05-19T05:37:11.262Z,31.57
2018-05-19T05:39:38.757Z,28.53
2018-05-19T05:42:06.301Z,32.43
2018-05-19T05:44:33.796Z,32.30
2018-05-19T05:47:01.321Z,21.27
2018-05-19T05:49:29.587Z,37.00
2018-05-19T05:51:57.118Z,31.83
2018-05-19T05:54:24.610Z,29.63
2018-05-19T05:56:52.134Z,20.40
2018-05-19T05:59:19.621Z,25.13
2018-05-19T06:01:47.167Z,31.80
2018-05-19T06:04:15.422Z,38.03
2018-05-19T06:06:42.917Z,26.40
2018-05-19T06:09:10.443Z,31.93
2018-05-19T06:11:37.939Z,26.30
2018-05-19T06:14:05.455Z,26.93
2018-05-19T06:16:32.945Z,25.03
2018-05-19T06:19:00.482Z,29.17
2018-05-19T06:21:28.750Z,29.93
2018-05-19T06:23:56.299Z,26.37
2018-05-19T06:26:24.566Z,30.20
2018-05-19T06:28:52.106Z,28.27
2018-05-19T06:31:20.374Z,31.63
2018-05-19T06:33:47.933Z,24.10
2018-05-19T06:36:15.429Z,25.97
2018-05-19T06:38:42.914Z,23.60
2018-05-19T06:41:11.214Z,31.20
2018-05-19T06:43:38.706Z,29.10
2018-05-19T06:46:06.226Z,30.30
2018-05-19T06:48:33.719Z,27.13
2018-05-19T06:51:01.252Z,32.60
2018-05-19T06:53:28.749Z,30.07
2018-05-19T06:55:57.039Z,33.90
2018-05-19T06:58:25.295Z,28.87
2018-05-19T07:00:52.847Z,30.67
2018-05-19T07:03:20.337Z,25.73
2018-05-19T07:05:47.864Z,25.50
2018-05-19T07:08:15.423Z,34.33
2018-05-19T07:10:42.908Z,28.50
2018-05-19T07:13:10.400Z,28.53
2018-05-19T07:15:37.927Z,30.57
2018-05-19T07:18:05.426Z,28.70
2018-05-19T07:20:32.914Z,29.30
2018-05-19T07:23:00.436Z,26.37
2018-05-19T07:25:27.934Z,27.37
2018-05-19T07:27:55.447Z,33.20
2018-05-19T07:30:22.943Z,31.40
2018-05-19T07:32:50.464Z,22.17
2018-05-19T07:35:17.995Z,25.77
2018-05-19T07:37:46.310Z,31.90
2018-05-19T07:40:13.830Z,22.40
2018-05-19T07:42:41.357Z,22.93
2018-05-19T07:45:08.913Z,22.50
2018-05-19T07:47:36.410Z,29.00
2018-05-19T07:50:03.906Z,30.23
2018-05-19T07:52:31.438Z,22.63
2018-05-19T07:54:58.942Z,28.87
2018-05-19T07:57:26.461Z,25.77
2018-05-19T07:59:54.733Z,20.37
2018-05-19T08:02:22.270Z,31.23
2018-05-19T08:04:49.762Z,23.23
2018-05-19T08:07:17.264Z,25.23
2018-05-19T08:09:45.554Z,25.37
2018-05-19T08:12:13.823Z,22.27
2018-05-19T08:14:41.357Z,25.10
2018-05-19T08:17:08.855Z,25.97
2018-05-19T08:19:36.377Z,32.57
2018-05-19T08:22:03.865Z,28.00
2018-05-19T08:24:31.386Z,26.50
2018-05-19T08:26:58.874Z,29.87
2018-05-19T08:29:27.212Z,26.77
2018-05-19T08:31:54.711Z,28.27
2018-05-19T08:34:22.197Z,26.97
2018-05-19T08:36:50.494Z,26.17
2018-05-19T08:39:17.989Z,29.63
2018-05-19T08:41:45.513Z,22.50
2018-05-19T08:44:13.014Z,30.13
2018-05-19T08:46:41.314Z,25.50
2018-05-19T08:49:09.585Z,26.30
2018-05-19T08:51:37.125Z,21.13
2018-05-19T08:54:04.632Z,24.93
2018-05-19T08:56:32.921Z,19.37
2018-05-19T08:59:01.182Z,24.83
2018-05-19T09:01:28.800Z,26.70
2018-05-19T09:03:56.302Z,35.23
2018-05-19T09:06:23.893Z,33.15
2018-05-19T09:08:51.405Z,42.10
2018-05-19T09:11:18.946Z,39.40
2018-05-19T09:13:46.438Z,31.60
2018-05-19T09:16:13.965Z,41.40
2018-05-19T09:18:41.509Z,34.97
2018-05-19T09:21:09.007Z,39.20
2018-05-19T09:23:36.542Z,32.57
2018-05-19T09:26:04.045Z,33.63
2018-05-19T09:28:31.639Z,31.20
2018-05-19T09:30:59.171Z,36.43
2018-05-19T09:33:26.693Z,43.17
2018-05-19T09:35:54.198Z,44.03
2018-05-19T09:38:22.506Z,46.43
2018-05-19T09:40:50.002Z,41.00
2018-05-19T09:43:17.529Z,41.10
2018-05-19T09:45:45.015Z,51.80
2018-05-19T09:48:12.562Z,42.03
2018-05-19T09:50:40.842Z,48.00
2018-05-19T09:53:08.465Z,38.17
2018-05-19T09:55:35.957Z,52.47
2018-05-19T09:58:03.489Z,53.20
2018-05-19T10:00:30.979Z,43.37
2018-05-19T10:02:58.473Z,48.60
2018-05-19T10:05:26.004Z,41.57
2018-05-19T10:07:53.492Z,44.23
2018-05-19T10:10:21.979Z,46.30
2018-05-19T10:12:50.024Z,45.30
2018-05-19T10:15:17.566Z,44.43
2018-05-19T10:17:45.065Z,44.37
2018-05-19T10:20:12.587Z,53.43
2018-05-19T10:22:40.146Z,48.73
2018-05-19T10:25:07.627Z,47.87
2018-05-19T10:27:35.133Z,43.33
2018-05-19T10:30:02.662Z,45.73
2018-05-19T10:32:30.170Z,41.07
2018-05-19T10:34:57.690Z,45.37
2018-05-19T10:37:25.953Z,39.30
2018-05-19T10:39:54.913Z,47.03
2018-05-19T10:42:22.397Z,43.67
2018-05-19T10:44:49.962Z,48.80
2018-05-19T10:47:17.457Z,43.50
2018-05-19T10:49:44.954Z,44.90
2018-05-19T10:52:13.246Z,42.70
2018-05-19T10:54:41.531Z,40.00
2018-05-19T10:57:09.067Z,43.37
2018-05-19T10:59:37.330Z,42.63
2018-05-19T11:02:04.849Z,36.90
2018-05-19T11:04:32.351Z,39.27
2018-05-19T11:07:00.657Z,44.20
2018-05-19T11:09:28.153Z,42.97
2018-05-19T11:11:55.682Z,45.13
2018-05-19T11:14:23.954Z,41.30
2018-05-19T11:16:51.489Z,45.30
2018-05-19T11:19:18.986Z,51.10
2018-05-19T11:21:46.527Z,43.07
2018-05-19T11:24:14.017Z,48.57
2018-05-19T11:26:41.542Z,41.23
2018-05-19T11:29:09.042Z,38.17
2018-05-19T11:31:36.561Z,43.60
2018-05-19T11:34:04.831Z,42.50
2018-05-19T11:36:32.319Z,46.07
2018-05-19T11:38:59.841Z,40.33
2018-05-19T11:41:27.418Z,46.43
2018-05-19T11:43:54.882Z,35.17
2018-05-19T11:46:22.375Z,35.40
2018-05-19T11:48:50.663Z,45.37
2018-05-19T11:51:18.190Z,48.10
2018-05-19T11:53:45.734Z,39.93
2018-05-19T11:56:13.337Z,38.47
2018-05-19T11:58:40.873Z,37.57
2018-05-19T12:01:08.386Z,43.67
2018-05-19T12:03:35.945Z,39.50
2018-05-19T12:06:04.263Z,38.60
2018-05-19T12:08:31.806Z,46.00
2018-05-19T12:11:00.074Z,41.80
2018-05-19T12:13:27.567Z,41.37
2018-05-19T12:15:55.863Z,41.60
2018-05-19T12:18:24.119Z,42.93
2018-05-19T12:20:51.657Z,46.33
2018-05-19T12:23:19.185Z,38.60
2018-05-19T12:25:46.722Z,43.30
2018-05-19T12:28:14.217Z,39.70
2018-05-19T12:30:42.506Z,45.73
2018-05-19T12:33:10.767Z,38.03
2018-05-19T12:35:38.291Z,44.80
2018-05-19T12:38:05.798Z,48.80
2018-05-19T12:40:34.094Z,42.33
2018-05-19T12:43:02.410Z,39.40
2018-05-19T12:45:29.937Z,38.10
2018-05-19T12:47:57.435Z,46.00
2018-05-19T12:50:24.969Z,38.73
2018-05-19T12:52:52.469Z,44.03
2018-05-19T12:55:20.006Z,41.03
2018-05-19T12:57:47.502Z,48.57
2018-05-19T13:00:14.999Z,57.13
2018-05-19T13:02:42.540Z,50.27
2018-05-19T13:05:10.038Z,36.07
2018-05-19T13:07:37.559Z,39.17
2018-05-19T13:10:05.070Z,48.50
2018-05-19T13:12:32.655Z,41.90
2018-05-19T13:15:00.100Z,33.87
2018-05-19T13:17:27.627Z,40.07
2018-05-19T13:19:55.885Z,40.23
2018-05-19T13:22:23.414Z,41.30
2018-05-19T13:24:50.913Z,38.13
2018-05-19T13:27:18.437Z,39.30
2018-05-19T13:29:46.697Z,39.10
2018-05-19T13:32:14.209Z,38.67
2018-05-19T13:34:41.697Z,38.90
2018-05-19T13:37:09.193Z,37.47
2018-05-19T13:39:36.733Z,35.43
2018-05-19T13:42:04.265Z,42.40
2018-05-19T13:44:31.773Z,34.07
2018-05-19T13:46:59.329Z,42.50
2018-05-19T13:49:26.837Z,36.07
2018-05-19T13:51:54.335Z,30.53
2018-05-19T13:54:21.853Z,40.17
2018-05-19T13:56:49.346Z,44.53
2018-05-19T13:59:16.874Z,35.93
2018-05-19T14:01:44.363Z,39.37
2018-05-19T14:04:11.914Z,39.50
2018-05-19T14:06:40.175Z,55.20
2018-05-19T14:09:07.697Z,42.47
2018-05-19T14:11:35.194Z,41.70
2018-05-19T14:14:02.736Z,38.43
2018-05-19T14:16:30.254Z,43.73
2018-05-19T14:18:57.788Z,41.93
2018-05-19T14:21:25.283Z,39.97
2018-05-19T14:23:52.814Z,38.20
2018-05-19T14:26:21.079Z,40.10
2018-05-19T14:28:48.617Z,38.63
2018-05-19T14:31:16.146Z,40.23
2018-05-19T14:33:43.690Z,38.33
2018-05-19T14:36:11.192Z,36.30
2018-05-19T14:38:38.685Z,37.30
2018-05-19T14:41:06.214Z,40.23
2018-05-19T14:43:33.742Z,35.53
2018-05-19T14:46:01.261Z,36.87
2018-05-19T14:48:28.750Z,52.10
2018-05-19T14:50:57.038Z,36.27
2018-05-19T14:53:25.379Z,41.10
2018-05-19T14:55:52.829Z,36.60
2018-05-19T14:58:20.318Z,37.87
2018-05-19T15:00:47.858Z,35.43
2018-05-19T15:03:15.352Z,39.93
2018-05-19T15:05:42.873Z,33.33
2018-05-19T15:08:11.135Z,38.03
2018-05-19T15:10:38.965Z,43.17
2018-05-19T15:13:06.462Z,40.07
2018-05-19T15:15:34.022Z,40.07
2018-05-19T15:18:01.519Z,34.87
2018-05-19T15:20:29.023Z,37.43
2018-05-19T15:22:56.554Z,37.13
2018-05-19T15:25:24.046Z,43.90
2018-05-19T15:27:51.582Z,44.93
2018-05-19T15:30:19.083Z,38.03
2018-05-19T15:32:46.660Z,42.33
2018-05-19T15:35:14.167Z,39.20
2018-05-19T15:37:42.505Z,38.63
2018-05-19T15:40:10.029Z,33.10
2018-05-19T15:42:38.323Z,38.80
2018-05-19T15:45:05.820Z,43.33
2018-05-19T15:47:33.360Z,37.73
2018-05-19T15:50:01.633Z,34.70
2018-05-19T15:52:29.165Z,39.03
2018-05-19T15:54:56.659Z,40.43
2018-05-19T15:57:24.194Z,39.93
2018-05-19T15:59:51.698Z,39.47
2018-05-19T16:02:19.257Z,32.17
2018-05-19T16:04:46.746Z,32.77
2018-05-19T16:07:14.370Z,36.77
2018-05-19T16:09:41.865Z,39.90
2018-05-19T16:12:09.359Z,36.23
2018-05-19T16:14:36.894Z,36.30
2018-05-19T16:17:04.404Z,32.90
2018-05-19T16:19:31.938Z,35.35
2018-05-19T16:21:59.833Z,31.57
2018-05-19T16:24:27.415Z,33.77
2018-05-19T16:26:54.916Z,35.47
2018-05-19T16:29:22.442Z,40.33
2018-05-19T16:31:49.934Z,34.20
2018-05-19T16:34:17.458Z,27.50
2018-05-19T16:36:44.955Z,31.40
2018-05-19T16:39:12.502Z,35.17
2018-05-19T16:41:40.860Z,36.33
2018-05-19T16:44:08.682Z,36.67
2018-05-19T16:46:36.188Z,30.80
2018-05-19T16:49:03.727Z,32.10
2018-05-19T16:51:31.269Z,32.40
2018-05-19T16:53:59.569Z,47.83
2018-05-19T16:56:27.830Z,28.27
2018-05-19T16:58:55.348Z,25.10
2018-05-19T17:01:22.877Z,33.20
2018-05-19T17:03:50.378Z,28.23
2018-05-19T17:06:17.930Z,29.97
2018-05-19T17:08:45.423Z,31.33
2018-05-19T17:11:12.975Z,34.67
2018-05-19T17:13:40.529Z,37.93
2018-05-19T17:16:08.062Z,30.90
2018-05-19T17:18:35.549Z,24.47
2018-05-19T17:21:03.091Z,28.43
2018-05-19T17:23:30.582Z,24.77
2018-05-19T17:25:58.142Z,44.00
2018-05-19T17:28:25.646Z,34.00
2018-05-19T17:30:53.166Z,33.40
2018-05-19T17:33:20.681Z,29.63
2018-05-19T17:35:48.262Z,28.47
2018-05-19T17:38:15.753Z,27.40
2018-05-19T17:40:43.252Z,28.90
2018-05-19T17:43:11.548Z,26.03
2018-05-19T17:45:39.147Z,28.93
2018-05-19T17:48:06.610Z,33.47
2018-05-19T17:50:34.118Z,26.17
2018-05-19T17:53:01.655Z,27.50
2018-05-19T17:55:29.158Z,24.77
2018-05-19T17:57:56.697Z,32.13
2018-05-19T18:00:24.190Z,29.43
2018-05-19T18:02:51.736Z,44.33
2018-05-19T18:05:19.276Z,30.00
2018-05-19T18:07:46.862Z,26.67
2018-05-19T18:10:14.302Z,34.07
2018-05-19T18:12:41.838Z,29.90
2018-05-19T18:15:09.335Z,30.50
2018-05-19T18:17:36.878Z,32.77
2018-05-19T18:20:05.238Z,20.77
2018-05-19T18:22:32.813Z,28.87
2018-05-19T18:25:00.324Z,29.57
2018-05-19T18:27:27.893Z,30.30
2018-05-19T18:29:55.452Z,24.17
2018-05-19T18:32:22.949Z,31.17
2018-05-19T18:34:50.490Z,29.60
2018-05-19T18:37:17.978Z,31.87
2018-05-19T18:39:45.507Z,23.13
2018-05-19T18:42:13.010Z,34.37
2018-05-19T18:44:40.593Z,29.53
2018-05-19T18:47:08.803Z,25.13
2018-05-19T18:49:36.322Z,28.13
2018-05-19T18:52:03.826Z,31.93
2018-05-19T18:54:31.350Z,24.20
2018-05-19T18:56:59.613Z,27.70
2018-05-19T18:59:27.146Z,30.80
2018-05-19T19:01:54.641Z,26.87
2018-05-19T19:04:22.172Z,26.87
2018-05-19T19:06:49.680Z,36.77
2018-05-19T19:09:17.224Z,33.30
2018-05-19T19:11:44.720Z,33.97
2018-05-19T19:14:12.209Z,30.27
2018-05-19T19:16:39.754Z,29.90
2018-05-19T19:19:07.253Z,33.63
2018-05-19T19:21:34.794Z,34.37
2018-05-19T19:24:02.317Z,37.80
2018-05-19T19:26:30.618Z,29.47
2018-05-19T19:28:58.119Z,32.33
2018-05-19T19:31:25.660Z,30.33
2018-05-19T19:33:53.926Z,35.17
2018-05-19T19:36:21.461Z,29.30
2018-05-19T19:38:48.953Z,35.50
2018-05-19T19:41:16.501Z,33.20
2018-05-19T19:43:44.024Z,29.57
2018-05-19T19:46:12.325Z,29.57
2018-05-19T19:48:40.578Z,32.50
2018-05-19T19:51:08.104Z,32.73
2018-05-19T19:53:36.425Z,34.20
2018-05-19T19:56:03.920Z,28.17
2018-05-19T19:58:31.473Z,41.10
2018-05-19T20:00:58.996Z,27.80
2018-05-19T20:03:26.564Z,33.87
2018-05-19T20:05:54.830Z,37.37
2018-05-19T20:08:22.360Z,39.60
2018-05-19T20:10:49.843Z,35.57
2018-05-19T20:13:17.390Z,33.57
2018-05-19T20:15:44.891Z,46.87
2018-05-19T20:18:12.430Z,33.50
2018-05-19T20:20:39.916Z,26.80
2018-05-19T20:23:07.454Z,33.00
2018-05-19T20:25:35.737Z,31.67
2018-05-19T20:28:03.255Z,42.40
2018-05-19T20:30:30.741Z,31.63
2018-05-19T20:32:58.261Z,36.70
2018-05-19T20:35:25.754Z,38.73
2018-05-19T20:37:53.290Z,33.37
2018-05-19T20:40:21.553Z,31.43
2018-05-19T20:42:49.091Z,36.00
2018-05-19T20:45:17.405Z,33.43
2018-05-19T20:47:44.893Z,25.40
2018-05-19T20:50:12.429Z,40.20
2018-05-19T20:52:39.922Z,27.03
2018-05-19T20:55:07.463Z,38.23
2018-05-19T20:57:34.961Z,37.03
2018-05-19T21:00:02.503Z,37.00
2018-05-19T21:02:29.990Z,37.60
2018-05-19T21:04:57.541Z,37.30
2018-05-19T21:07:25.031Z,38.10
2018-05-19T21:09:52.554Z,37.30
2018-05-19T21:12:20.042Z,34.33
2018-05-19T21:14:48.340Z,31.90
2018-05-19T21:17:15.829Z,34.63
2018-05-19T21:19:43.370Z,36.97
2018-05-19T21:22:10.869Z,30.43
2018-05-19T21:24:38.401Z,39.40
2018-05-19T21:27:05.901Z,37.17
2018-05-19T21:29:33.468Z,32.10
2018-05-19T21:32:01.731Z,33.87
2018-05-19T21:34:29.219Z,35.10
2018-05-19T21:36:57.520Z,32.33
2018-05-19T21:39:25.771Z,39.23
2018-05-19T21:41:53.305Z,34.83
2018-05-19T21:44:20.808Z,37.03
2018-05-19T21:46:48.351Z,43.57
2018-05-19T21:49:15.858Z,41.63
2018-05-19T21:51:43.478Z,38.10
2018-05-19T21:54:10.978Z,33.00
2018-05-19T21:56:38.514Z,43.33
2018-05-19T21:59:06.010Z,35.37
2018-05-19T22:01:33.526Z,37.97
2018-05-19T22:04:01.021Z,41.10
2018-05-19T22:06:29.310Z,35.60
2018-05-19T22:08:57.596Z,42.40
2018-05-19T22:11:25.909Z,41.80
2018-05-19T22:13:53.408Z,39.33
2018-05-19T22:16:20.933Z,43.83
2018-05-19T22:18:49.190Z,36.23
2018-05-19T22:21:16.717Z,42.10
2018-05-19T22:23:44.214Z,43.37
2018-05-19T22:26:11.714Z,54.00
2018-05-19T22:28:39.272Z,39.10
2018-05-19T22:31:06.761Z,44.13
2018-05-19T22:33:35.065Z,51.97
2018-05-19T22:36:03.386Z,46.90
2018-05-19T22:38:30.912Z,47.30
2018-05-19T22:40:58.521Z,49.47
2018-05-19T22:43:26.094Z,46.23
2018-05-19T22:45:53.597Z,36.67
2018-05-19T22:48:21.115Z,41.70
2018-05-19T22:50:48.614Z,42.33
2018-05-19T22:53:16.172Z,41.20
2018-05-19T22:55:44.610Z,49.67
2018-05-19T22:58:12.098Z,43.80
2018-05-19T23:00:39.625Z,46.90
2018-05-19T23:03:07.127Z,42.83
2018-05-19T23:05:34.670Z,44.73
2018-05-19T23:08:02.158Z,51.47
2018-05-19T23:10:29.685Z,45.63
2018-05-19T23:12:57.941Z,50.63
2018-05-19T23:15:25.478Z,47.53
2018-05-19T23:17:52.986Z,56.50
2018-05-19T23:20:20.510Z,46.70
2018-05-19T23:22:54.833Z,51.33
2018-05-19T23:25:22.349Z,62.73
2018-05-19T23:27:49.842Z,59.03
2018-05-19T23:30:17.378Z,58.10
2018-05-19T23:32:44.861Z,58.47
2018-05-19T23:35:12.355Z,54.90
2018-05-19T23:37:39.874Z,51.27
2018-05-19T23:40:07.839Z,48.33
2018-05-19T23:42:35.431Z,52.10
2018-05-19T23:45:02.919Z,46.17
2018-05-19T23:47:30.453Z,53.73
2018-05-19T23:49:57.954Z,59.37
2018-05-19T23:52:25.482Z,52.73
2018-05-19T23:54:53.734Z,57.47
2018-05-19T23:57:21.262Z,50.73
2018-05-19T23:59:48.761Z,53.37
